Time;durP1;ratioP1;P1;durP2;ratioP2;P2;SDS_P1;SDS_P2;PMS_P1;PMS_P2;Temp;Humidity;BMP_temperature;BMP_pressure;BME280_temperature;BME280_humidity;BME280_pressure;Samples;Min_cycle;Max_cycle;Signal;HPM_P1;HPM_P2
2024/03/30 00:02:39;;;;;;;1.33;1.23;;;12.80;88.80;;;;;;10339235;28;20305;-61
2024/03/30 00:07:44;;;;;;;1.25;1.13;;;12.80;88.30;;;;;;10336483;28;20227;-62
2024/03/30 00:12:49;;;;;;;2.45;0.95;;;12.70;88.90;;;;;;10338832;28;21638;-60
2024/03/30 00:17:52;;;;;;;1.20;1.02;;;12.70;89.00;;;;;;10335340;28;21753;-62
2024/03/30 00:22:55;;;;;;;1.52;1.20;;;12.70;89.00;;;;;;10332600;28;20261;-64
2024/03/30 00:28:00;;;;;;;4.05;1.73;;;12.70;89.00;;;;;;10333009;28;20231;-62
2024/03/30 00:33:03;;;;;;;2.22;1.83;;;12.60;89.30;;;;;;10334922;28;20748;-63
2024/03/30 00:38:06;;;;;;;2.00;1.80;;;12.60;89.40;;;;;;10334771;28;20239;-64
2024/03/30 00:43:10;;;;;;;2.05;1.60;;;12.60;89.70;;;;;;10335083;28;20292;-60
2024/03/30 00:48:13;;;;;;;1.88;1.65;;;12.60;89.70;;;;;;10335468;28;20379;-63
2024/03/30 00:53:15;;;;;;;2.80;1.80;;;12.60;89.60;;;;;;10336995;28;20292;-62
2024/03/30 00:58:19;;;;;;;2.20;1.83;;;12.60;90.00;;;;;;10347923;28;20228;-65
2024/03/30 01:03:22;;;;;;;1.83;1.60;;;12.60;89.80;;;;;;10342661;28;20212;-62
2024/03/30 01:08:24;;;;;;;2.90;1.80;;;12.60;90.20;;;;;;10346536;28;20793;-63
2024/03/30 01:13:29;;;;;;;2.97;2.10;;;12.60;90.30;;;;;;10345731;28;21419;-63
2024/03/30 01:18:32;;;;;;;3.28;2.20;;;12.60;90.10;;;;;;10352057;28;20232;-63
2024/03/30 01:23:36;;;;;;;2.30;2.15;;;12.50;90.00;;;;;;10347292;28;20216;-62
2024/03/30 01:28:42;;;;;;;2.08;1.88;;;12.50;90.10;;;;;;10346058;28;20726;-64
2024/03/30 01:33:46;;;;;;;1.98;1.80;;;12.50;90.20;;;;;;10341265;28;20300;-62
2024/03/30 01:38:48;;;;;;;2.20;1.70;;;12.50;90.20;;;;;;10341803;28;20647;-64
2024/03/30 01:43:52;;;;;;;2.67;1.60;;;12.50;90.30;;;;;;10341941;28;21701;-62
2024/03/30 01:48:55;;;;;;;3.72;1.88;;;12.50;90.10;;;;;;10339422;28;20650;-64
2024/03/30 01:53:59;;;;;;;2.05;1.65;;;12.40;90.40;;;;;;10341766;28;20216;-63
2024/03/30 01:59:04;;;;;;;2.63;1.73;;;12.40;90.30;;;;;;10340635;28;20286;-62
2024/03/30 02:04:06;;;;;;;1.90;1.73;;;12.40;90.40;;;;;;10338341;28;20208;-63
2024/03/30 02:09:11;;;;;;;2.92;1.80;;;12.30;90.40;;;;;;10340669;28;20231;-64
2024/03/30 02:14:15;;;;;;;2.00;1.80;;;12.30;90.40;;;;;;10336460;28;20247;-63
2024/03/30 02:19:20;;;;;;;2.00;1.80;;;12.30;90.40;;;;;;10336780;28;20231;-62
2024/03/30 02:24:24;;;;;;;1.85;1.75;;;12.20;90.60;;;;;;10336994;28;21333;-64
2024/03/30 02:29:31;;;;;;;1.80;1.70;;;12.20;90.90;;;;;;10330328;28;20232;-63
2024/03/30 02:34:34;;;;;;;2.75;1.60;;;12.20;90.60;;;;;;10334066;28;20336;-65
2024/03/30 02:39:38;;;;;;;1.63;1.52;;;12.10;90.60;;;;;;10338863;28;20289;-63
2024/03/30 02:44:40;;;;;;;2.83;1.85;;;12.10;90.50;;;;;;10338491;28;20241;-61
2024/03/30 02:49:43;;;;;;;1.70;1.60;;;12.10;90.60;;;;;;10349828;23;20311;-67
2024/03/30 02:54:48;;;;;;;1.70;1.40;;;12.10;90.60;;;;;;10332128;28;20289;-67
2024/03/30 02:59:50;;;;;;;1.63;1.52;;;12.10;90.80;;;;;;10331467;28;20228;-66
2024/03/30 03:04:53;;;;;;;1.80;1.70;;;12.10;91.00;;;;;;10331202;28;20211;-66
2024/03/30 03:09:57;;;;;;;2.35;2.00;;;12.10;90.80;;;;;;10329310;28;20700;-66
2024/03/30 03:15:04;;;;;;;2.30;2.10;;;12.10;90.80;;;;;;10327096;28;21526;-65
2024/03/30 03:20:08;;;;;;;2.67;2.47;;;12.10;90.90;;;;;;10329341;28;20269;-66
2024/03/30 03:25:12;;;;;;;3.42;2.60;;;12.10;90.80;;;;;;10328228;28;21883;-66
2024/03/30 03:30:15;;;;;;;3.13;2.60;;;12.10;90.80;;;;;;10328128;28;20235;-67
2024/03/30 03:35:18;;;;;;;3.60;2.70;;;12.10;90.80;;;;;;10332766;28;21683;-67
2024/03/30 03:40:22;;;;;;;3.05;2.75;;;12.00;90.80;;;;;;10328724;28;20231;-65
2024/03/30 03:45:24;;;;;;;3.30;3.00;;;12.00;91.00;;;;;;10326653;28;20625;-65
2024/03/30 03:50:27;;;;;;;2.90;2.53;;;12.00;91.00;;;;;;10329910;28;20348;-66
2024/03/30 03:55:32;;;;;;;4.47;2.63;;;12.00;91.00;;;;;;10332067;28;21945;-66
2024/03/30 04:00:35;;;;;;;4.40;2.78;;;12.00;91.20;;;;;;10328307;28;20281;-66
2024/03/30 04:05:37;;;;;;;4.13;2.85;;;12.00;91.50;;;;;;10329699;28;20204;-66
2024/03/30 04:10:41;;;;;;;2.97;2.60;;;12.00;91.10;;;;;;10328768;28;20325;-66
2024/03/30 04:15:44;;;;;;;2.97;2.70;;;12.00;91.30;;;;;;10328556;28;22079;-66
2024/03/30 04:20:57;;;;;;;3.83;2.83;;;11.90;91.20;;;;;;10330284;28;20715;-66
2024/03/30 04:26:09;;;;;;;4.03;3.33;;;11.90;91.20;;;;;;10334071;28;20258;-66
2024/03/30 04:31:12;;;;;;;3.20;2.80;;;11.90;91.30;;;;;;10328963;28;20232;-67
2024/03/30 04:36:15;;;;;;;4.00;3.70;;;11.90;91.30;;;;;;10328818;28;22152;-66
2024/03/30 04:41:19;;;;;;;3.92;3.50;;;11.80;91.20;;;;;;10335730;28;20227;-66
2024/03/30 04:46:21;;;;;;;3.92;3.50;;;11.80;91.30;;;;;;10335633;28;20273;-66
2024/03/30 04:51:24;;;;;;;3.88;3.58;;;11.80;91.30;;;;;;10335913;28;20231;-66
2024/03/30 04:56:28;;;;;;;3.75;3.45;;;11.80;91.40;;;;;;10334594;28;20227;-66
2024/03/30 05:01:32;;;;;;;4.18;3.78;;;11.80;91.50;;;;;;10335059;28;20228;-67
2024/03/30 05:06:34;;;;;;;4.22;3.92;;;11.80;91.40;;;;;;10335192;28;20285;-67
2024/03/30 05:11:39;;;;;;;4.25;3.67;;;11.70;91.30;;;;;;10333508;28;21383;-65
2024/03/30 05:16:41;;;;;;;4.60;4.20;;;11.70;91.40;;;;;;10333795;28;20528;-66
2024/03/30 05:21:44;;;;;;;5.30;4.47;;;11.70;91.40;;;;;;10357390;28;20231;-66
2024/03/30 05:26:48;;;;;;;4.60;4.20;;;11.70;91.60;;;;;;10332657;28;20204;-66
2024/03/30 05:31:50;;;;;;;4.97;4.45;;;11.70;91.60;;;;;;10334265;28;20227;-65
2024/03/30 05:36:53;;;;;;;4.60;4.20;;;11.70;91.40;;;;;;10333063;28;20281;-65
2024/03/30 05:41:57;;;;;;;4.78;4.38;;;11.60;91.70;;;;;;10333889;28;20301;-67
2024/03/30 05:47:00;;;;;;;5.38;4.90;;;11.60;91.50;;;;;;10332332;28;20204;-66
2024/03/30 05:52:02;;;;;;;4.13;3.83;;;11.60;91.60;;;;;;10331757;28;20223;-66
2024/03/30 05:57:06;;;;;;;4.20;3.63;;;11.70;91.70;;;;;;10332074;28;20316;-67
2024/03/30 06:02:09;;;;;;;4.43;4.03;;;11.70;91.70;;;;;;10332274;28;21727;-66
2024/03/30 06:07:12;;;;;;;5.50;5.00;;;11.70;91.60;;;;;;10329799;28;20509;-66
2024/03/30 06:12:16;;;;;;;4.50;3.80;;;11.80;92.80;;;;;;10330876;28;21110;-66
2024/03/30 06:17:18;;;;;;;4.30;3.90;;;11.80;91.90;;;;;;10329938;28;20231;-66
2024/03/30 06:22:22;;;;;;;3.67;3.38;;;11.90;91.80;;;;;;10331759;28;20227;-67
2024/03/30 06:27:26;;;;;;;4.45;4.07;;;11.90;91.70;;;;;;10329633;28;20208;-65
2024/03/30 06:32:28;;;;;;;4.40;4.00;;;11.90;91.70;;;;;;10327937;28;20278;-66
2024/03/30 06:37:31;;;;;;;4.40;4.00;;;11.90;91.60;;;;;;10328214;28;20300;-67
2024/03/30 06:47:56;;;;;;;5.13;4.18;;;12.00;91.70;;;;;;10329343;28;20205;-67
2024/03/30 06:52:58;;;;;;;4.80;4.30;;;12.00;91.70;;;;;;10330865;28;20238;-67
2024/03/30 06:58:02;;;;;;;3.97;3.67;;;12.00;91.60;;;;;;10329219;28;20975;-67
2024/03/30 07:03:05;;;;;;;3.92;3.53;;;12.10;91.70;;;;;;10326152;28;20215;-67
2024/03/30 07:08:08;;;;;;;4.13;3.83;;;12.20;91.70;;;;;;10330782;28;20285;-67
2024/03/30 07:13:12;;;;;;;3.92;3.63;;;12.20;91.60;;;;;;10333169;28;20208;-66
2024/03/30 07:18:14;;;;;;;4.35;3.95;;;12.30;91.70;;;;;;10328874;28;20231;-67
2024/03/30 07:23:18;;;;;;;4.68;3.70;;;12.30;91.50;;;;;;10329261;28;20296;-65
2024/03/30 07:28:22;;;;;;;5.18;3.60;;;12.40;91.60;;;;;;10329422;28;20300;-67
2024/03/30 07:33:24;;;;;;;4.70;4.22;;;12.50;91.70;;;;;;10332285;28;20262;-65
2024/03/30 07:38:32;;;;;;;4.60;4.20;;;12.50;91.60;;;;;;10329360;28;20243;-66
2024/03/30 07:43:36;;;;;;;4.28;3.88;;;12.50;91.70;;;;;;10330225;28;20732;-68
2024/03/30 07:48:38;;;;;;;4.97;3.80;;;12.60;91.80;;;;;;10326337;28;20228;-68
2024/03/30 07:53:41;;;;;;;4.72;4.25;;;12.60;91.70;;;;;;10330114;28;21496;-68
2024/03/30 07:58:45;;;;;;;6.20;4.50;;;12.50;91.80;;;;;;10328796;28;20232;-67
2024/03/30 08:03:47;;;;;;;4.97;4.55;;;12.50;91.90;;;;;;10326484;28;20269;-65
2024/03/30 08:08:50;;;;;;;5.72;4.72;;;12.60;92.00;;;;;;10330073;28;20840;-66
2024/03/30 08:13:54;;;;;;;5.45;4.90;;;12.60;92.30;;;;;;10335485;28;20292;-64
2024/03/30 08:18:58;;;;;;;5.72;5.07;;;12.60;92.30;;;;;;10336897;28;21487;-65
2024/03/30 08:24:01;;;;;;;5.82;5.22;;;12.60;92.20;;;;;;10337273;28;20294;-65
2024/03/30 08:29:06;;;;;;;5.70;5.00;;;12.70;92.20;;;;;;10336428;28;20227;-66
2024/03/30 08:34:09;;;;;;;7.03;4.97;;;12.80;92.20;;;;;;10336067;28;20281;-66
2024/03/30 08:39:11;;;;;;;5.60;5.10;;;12.90;92.30;;;;;;10336418;28;20227;-66
2024/03/30 08:44:16;;;;;;;5.38;4.88;;;13.00;92.20;;;;;;10338239;28;20204;-69
2024/03/30 08:49:18;;;;;;;5.65;5.15;;;13.20;92.10;;;;;;10336684;28;20335;-66
2024/03/30 08:54:21;;;;;;;7.10;4.95;;;13.40;92.20;;;;;;10335369;28;20743;-66
2024/03/30 08:59:25;;;;;;;7.28;5.05;;;13.50;92.10;;;;;;10334628;28;20297;-66
2024/03/30 09:04:28;;;;;;;8.02;6.78;;;13.70;92.20;;;;;;10334750;28;20208;-65
2024/03/30 09:09:31;;;;;;;7.07;4.22;;;13.90;92.10;;;;;;10333775;28;20320;-65
2024/03/30 09:14:36;;;;;;;6.78;4.60;;;14.10;92.10;;;;;;10333830;28;20522;-66
2024/03/30 09:19:39;;;;;;;5.78;3.83;;;14.20;92.00;;;;;;10332125;28;20224;-62
2024/03/30 09:24:43;;;;;;;10.70;3.80;;;14.40;92.10;;;;;;10333339;28;20635;-64
2024/03/30 09:29:47;;;;;;;10.15;3.17;;;14.60;92.10;;;;;;10332004;28;20253;-66
2024/03/30 09:34:49;;;;;;;18.80;2.65;;;14.90;91.90;;;;;;10332537;28;20204;-64
2024/03/30 09:39:52;;;;;;;19.55;3.10;;;15.10;91.70;;;;;;10333514;28;20231;-63
2024/03/30 09:44:56;;;;;;;16.88;3.33;;;15.40;91.60;;;;;;10329414;28;21513;-63
2024/03/30 09:50:02;;;;;;;20.60;4.57;;;15.50;91.20;;;;;;10331931;28;20231;-64
2024/03/30 09:55:10;;;;;;;22.17;4.13;;;15.70;91.10;;;;;;10327875;28;20212;-64
2024/03/30 10:00:16;;;;;;;19.17;4.32;;;15.90;90.90;;;;;;10329217;28;20212;-63
2024/03/30 10:05:18;;;;;;;20.90;4.45;;;16.10;90.40;;;;;;10332091;28;20237;-63
2024/03/30 10:10:23;;;;;;;31.50;4.70;;;16.30;90.00;;;;;;10331559;28;20594;-65
2024/03/30 10:15:34;;;;;;;25.50;4.50;;;16.50;87.80;;;;;;10331534;28;20265;-62
2024/03/30 10:20:37;;;;;;;26.83;5.20;;;16.70;86.00;;;;;;10329701;28;20256;-67
2024/03/30 10:25:51;;;;;;;35.58;5.78;;;16.80;85.60;;;;;;10328185;28;20204;-65
2024/03/30 10:30:54;;;;;;;30.80;5.20;;;17.00;83.10;;;;;;10332972;28;20223;-66
2024/03/30 10:35:58;;;;;;;25.83;5.05;;;17.20;84.50;;;;;;10330753;28;20230;-65
2024/03/30 10:41:00;;;;;;;36.67;6.00;;;17.30;85.20;;;;;;10330528;28;20235;-67
2024/03/30 10:46:05;;;;;;;30.85;5.88;;;17.50;84.00;;;;;;10332121;28;20316;-66
2024/03/30 10:51:08;;;;;;;36.92;5.75;;;17.60;83.10;;;;;;10324379;28;20239;-67
2024/03/30 10:56:11;;;;;;;34.45;6.00;;;17.80;83.50;;;;;;10319827;28;20228;-66
2024/03/30 11:01:17;;;;;;;37.47;5.95;;;17.80;82.20;;;;;;10319949;28;20232;-66
2024/03/30 11:06:20;;;;;;;34.13;5.68;;;17.80;80.80;;;;;;10320278;28;20203;-66
2024/03/30 11:11:22;;;;;;;31.48;6.00;;;17.80;79.30;;;;;;10348795;28;20227;-66
2024/03/30 11:16:30;;;;;;;37.25;6.70;;;17.80;79.70;;;;;;10400823;28;20227;-65
2024/03/30 11:21:37;;;;;;;37.67;6.78;;;17.90;78.00;;;;;;10439923;28;20245;-65
2024/03/30 11:26:48;;;;;;;47.58;6.97;;;17.90;80.10;;;;;;10442732;28;20251;-65
2024/03/30 11:31:59;;;;;;;36.65;6.28;;;17.80;79.30;;;;;;10412262;28;20216;-67
2024/03/30 11:37:09;;;;;;;44.53;6.63;;;17.80;78.90;;;;;;10399387;28;20294;-66
2024/03/30 11:42:21;;;;;;;34.25;6.57;;;17.80;78.70;;;;;;10446239;28;20226;-67
2024/03/30 11:47:25;;;;;;;35.30;6.40;;;17.70;78.60;;;;;;10454206;28;20324;-65
2024/03/30 11:52:28;;;;;;;44.10;6.93;;;17.60;78.20;;;;;;10435289;28;20710;-65
2024/03/30 11:57:31;;;;;;;37.28;6.40;;;17.60;75.90;;;;;;10436303;28;20259;-66
2024/03/30 12:02:35;;;;;;;32.95;5.85;;;17.70;76.50;;;;;;10391254;28;20277;-65
2024/03/30 12:07:38;;;;;;;31.02;5.40;;;17.70;77.00;;;;;;10394196;28;20246;-65
2024/03/30 12:12:41;;;;;;;30.42;5.35;;;17.70;75.30;;;;;;10417519;28;20217;-68
2024/03/30 12:17:45;;;;;;;29.15;5.95;;;17.60;76.00;;;;;;10393753;28;20208;-67
2024/03/30 12:22:48;;;;;;;39.28;6.07;;;17.70;75.60;;;;;;10422878;28;20200;-67
2024/03/30 12:27:51;;;;;;;39.65;6.53;;;17.70;76.30;;;;;;10406870;28;20193;-68
2024/03/30 12:32:57;;;;;;;34.17;6.13;;;17.60;74.30;;;;;;10426592;28;20187;-67
2024/03/30 12:38:00;;;;;;;38.70;5.50;;;17.60;74.60;;;;;;10415180;28;20215;-66
2024/03/30 12:43:03;;;;;;;33.10;6.10;;;17.60;75.30;;;;;;10417516;28;20261;-66
2024/03/30 12:48:08;;;;;;;33.22;6.35;;;17.60;74.50;;;;;;10409893;28;20254;-67
2024/03/30 12:53:11;;;;;;;27.80;5.88;;;17.70;75.60;;;;;;10407437;28;20205;-68
2024/03/30 12:58:13;;;;;;;32.35;5.50;;;17.70;75.50;;;;;;10393574;28;20310;-66
2024/03/30 13:03:17;;;;;;;31.05;6.28;;;17.80;76.00;;;;;;10401250;28;20337;-66
2024/03/30 13:08:21;;;;;;;30.88;5.78;;;17.80;75.10;;;;;;10403489;28;20255;-70
2024/03/30 13:13:23;;;;;;;34.45;5.25;;;17.90;74.50;;;;;;10408182;28;20220;-64
2024/03/30 13:18:28;;;;;;;29.30;5.13;;;18.00;75.40;;;;;;10401191;28;20274;-65
2024/03/30 13:23:31;;;;;;;34.72;5.25;;;18.00;74.80;;;;;;10420363;28;20211;-67
2024/03/30 13:28:34;;;;;;;36.25;5.57;;;18.00;71.60;;;;;;10413031;28;21740;-64
2024/03/30 13:33:38;;;;;;;26.48;4.82;;;18.00;71.70;;;;;;10398718;28;20721;-66
2024/03/30 13:38:40;;;;;;;26.55;4.53;;;18.10;71.00;;;;;;10407283;28;20730;-70
2024/03/30 13:43:43;;;;;;;24.27;4.57;;;18.10;70.80;;;;;;10397987;28;20346;-65
2024/03/30 13:48:47;;;;;;;27.67;4.45;;;18.00;69.90;;;;;;10395108;28;20288;-68
2024/03/30 13:53:49;;;;;;;29.42;5.00;;;18.00;69.70;;;;;;10396134;28;20351;-66
2024/03/30 13:58:52;;;;;;;31.77;4.57;;;18.20;70.10;;;;;;10394304;28;20746;-66
2024/03/30 14:03:56;;;;;;;27.85;4.85;;;18.20;69.60;;;;;;10357486;28;20208;-68
2024/03/30 14:08:59;;;;;;;26.35;3.95;;;18.20;68.50;;;;;;10354850;28;20219;-67
2024/03/30 14:14:02;;;;;;;28.17;4.25;;;18.10;68.20;;;;;;10390863;28;20315;-69
2024/03/30 14:19:06;;;;;;;13.38;2.92;;;18.10;69.10;;;;;;10392342;28;20840;-67
2024/03/30 14:24:08;;;;;;;13.27;2.63;;;18.00;69.20;;;;;;10393964;28;20307;-68
2024/03/30 14:29:11;;;;;;;14.60;2.67;;;17.80;68.90;;;;;;10398841;28;20273;-66
2024/03/30 14:34:15;;;;;;;11.57;2.55;;;17.60;68.50;;;;;;10410372;28;20242;-67
2024/03/30 14:39:17;;;;;;;15.52;2.60;;;17.50;69.50;;;;;;10403450;28;20285;-67
2024/03/30 14:44:20;;;;;;;13.32;2.28;;;17.50;69.80;;;;;;10402053;28;20235;-67
2024/03/30 14:49:24;;;;;;;7.53;2.10;;;17.50;70.90;;;;;;10419800;28;20235;-65
2024/03/30 14:54:27;;;;;;;8.88;2.00;;;17.40;70.00;;;;;;10421991;28;20257;-65
2024/03/30 14:59:29;;;;;;;8.70;1.67;;;17.30;70.70;;;;;;10425784;28;20222;-63
2024/03/30 15:04:36;;;;;;;6.22;1.35;;;17.20;70.50;;;;;;10409952;28;20212;-64
2024/03/30 15:09:38;;;;;;;3.53;1.25;;;17.10;69.50;;;;;;10426140;28;20281;-64
2024/03/30 15:14:41;;;;;;;5.13;1.50;;;17.00;70.50;;;;;;10416811;28;20695;-63
2024/03/30 15:19:45;;;;;;;5.07;1.27;;;17.00;69.20;;;;;;10398864;28;20322;-62
2024/03/30 15:24:48;;;;;;;4.38;1.20;;;17.00;69.60;;;;;;10368661;28;20985;-63
2024/03/30 15:35:09;;;;;;;4.95;1.02;;;17.00;69.50;;;;;;10352482;28;20211;-61
2024/03/30 15:40:12;;;;;;;5.05;0.77;;;16.90;69.40;;;;;;10359332;28;20623;-63
2024/03/30 15:45:15;;;;;;;2.67;0.90;;;16.70;69.50;;;;;;10389729;28;20225;-66
2024/03/30 15:50:19;;;;;;;4.28;1.20;;;16.60;70.00;;;;;;10395987;28;20771;-65
2024/03/30 15:55:23;;;;;;;2.70;1.30;;;16.50;70.90;;;;;;10379640;28;20257;-63
2024/03/30 16:00:25;;;;;;;3.78;1.40;;;16.50;70.80;;;;;;10366955;28;20256;-62
2024/03/30 16:05:29;;;;;;;6.70;1.70;;;16.50;71.70;;;;;;10354543;28;20238;-63
2024/03/30 16:10:32;;;;;;;6.28;1.73;;;16.30;71.70;;;;;;10362748;28;21254;-63
2024/03/30 16:15:34;;;;;;;2.55;1.73;;;16.20;72.10;;;;;;10364220;28;20219;-63
2024/03/30 16:20:38;;;;;;;5.78;1.58;;;16.10;72.40;;;;;;10351511;28;20238;-61
2024/03/30 16:25:41;;;;;;;4.45;2.00;;;16.00;72.70;;;;;;10356168;28;20219;-65
2024/03/30 16:30:44;;;;;;;2.75;1.80;;;15.90;72.80;;;;;;10350812;28;20216;-65
2024/03/30 16:35:48;;;;;;;9.82;2.20;;;15.80;73.20;;;;;;10372141;28;20269;-66
2024/03/30 16:40:50;;;;;;;2.40;1.50;;;15.70;73.40;;;;;;10352138;28;20785;-65
2024/03/30 16:45:53;;;;;;;2.25;1.02;;;15.60;73.30;;;;;;10348980;28;20207;-64
2024/03/30 16:51:00;;;;;;;1.77;1.13;;;15.50;73.30;;;;;;10342838;28;20231;-65
2024/03/30 16:56:06;;;;;;;3.40;1.50;;;15.50;73.80;;;;;;10347642;28;20223;-64
2024/03/30 17:01:09;;;;;;;2.03;1.63;;;15.40;73.70;;;;;;10358959;28;20223;-64
2024/03/30 17:06:13;;;;;;;6.13;5.53;;;15.30;73.90;;;;;;10344979;28;20208;-63
2024/03/30 17:11:15;;;;;;;3.55;2.78;;;15.30;73.90;;;;;;10343469;28;20663;-62
2024/03/30 17:16:18;;;;;;;2.00;1.30;;;15.20;73.70;;;;;;10341618;28;22531;-65
2024/03/30 17:21:22;;;;;;;1.42;1.27;;;15.10;73.80;;;;;;10355740;28;20261;-63
2024/03/30 17:26:25;;;;;;;1.85;1.60;;;15.00;73.90;;;;;;10380806;28;20287;-63
2024/03/30 17:31:28;;;;;;;2.45;1.77;;;14.90;74.00;;;;;;10359111;28;20445;-63
2024/03/30 17:36:32;;;;;;;2.90;1.77;;;14.90;74.20;;;;;;10345604;28;20805;-63
2024/03/30 17:41:34;;;;;;;1.92;1.73;;;14.80;74.20;;;;;;10339822;28;20239;-62
2024/03/30 17:46:38;;;;;;;1.80;1.70;;;14.80;74.30;;;;;;10335637;28;20243;-62
2024/03/30 17:51:42;;;;;;;2.65;1.83;;;14.80;74.40;;;;;;10333759;28;20320;-65
2024/03/30 17:56:45;;;;;;;2.30;2.05;;;14.70;74.50;;;;;;10332738;28;20200;-64
2024/03/30 18:01:47;;;;;;;3.80;2.28;;;14.70;74.70;;;;;;10327204;28;20760;-63
2024/03/30 18:06:51;;;;;;;3.13;2.83;;;14.60;74.40;;;;;;10331747;28;20208;-64
2024/03/30 18:11:54;;;;;;;3.10;2.75;;;14.60;74.60;;;;;;10345051;28;20421;-64
2024/03/30 18:16:56;;;;;;;4.60;2.95;;;14.60;74.70;;;;;;10349179;28;20269;-64
2024/03/30 18:22:00;;;;;;;4.25;3.35;;;14.60;74.70;;;;;;10362083;28;20699;-63
2024/03/30 18:27:04;;;;;;;3.85;3.50;;;14.60;74.90;;;;;;10364992;28;20783;-64
2024/03/30 18:32:07;;;;;;;6.82;4.47;;;14.60;74.90;;;;;;10368469;28;20224;-65
2024/03/30 18:37:11;;;;;;;5.75;3.90;;;14.60;75.00;;;;;;10361217;28;20212;-63
2024/03/30 18:42:14;;;;;;;4.63;4.23;;;14.50;75.00;;;;;;10344349;28;20452;-62
2024/03/30 18:47:16;;;;;;;5.18;4.40;;;14.60;76.70;;;;;;10342460;28;20269;-60
2024/03/30 18:52:20;;;;;;;5.65;4.95;;;14.60;75.80;;;;;;10330130;28;20285;-59
2024/03/30 18:57:25;;;;;;;7.07;5.60;;;14.50;75.70;;;;;;10332572;28;20212;-61
2024/03/30 19:02:28;;;;;;;6.43;5.47;;;14.40;75.80;;;;;;10336938;28;20244;-61
2024/03/30 19:07:32;;;;;;;6.20;5.45;;;14.30;75.90;;;;;;10346772;28;20290;-61
2024/03/30 19:12:36;;;;;;;7.72;6.03;;;14.20;76.20;;;;;;10333048;28;20378;-61
2024/03/30 19:17:39;;;;;;;10.52;5.50;;;14.10;76.30;;;;;;10335464;28;20203;-60
2024/03/30 19:22:43;;;;;;;7.03;5.93;;;14.00;76.40;;;;;;10334413;28;20293;-60
2024/03/30 19:27:45;;;;;;;6.60;5.72;;;13.90;76.50;;;;;;10331102;28;20598;-60
2024/03/30 19:32:50;;;;;;;10.10;6.25;;;13.80;76.50;;;;;;10333210;28;20199;-61
2024/03/30 19:37:54;;;;;;;7.07;5.78;;;13.70;76.60;;;;;;10332901;28;20212;-62
2024/03/30 19:42:56;;;;;;;7.45;5.80;;;13.60;77.00;;;;;;10335432;28;20227;-62
2024/03/30 19:47:59;;;;;;;8.65;6.20;;;13.50;77.00;;;;;;10333658;28;20891;-62
2024/03/30 19:53:03;;;;;;;6.93;6.20;;;13.40;77.20;;;;;;10333827;28;20262;-61
2024/03/30 19:58:06;;;;;;;7.45;6.10;;;13.30;77.30;;;;;;10333787;28;20631;-60
2024/03/30 20:03:08;;;;;;;8.05;6.43;;;13.30;77.50;;;;;;10334924;28;20231;-61
2024/03/30 20:08:12;;;;;;;8.13;6.63;;;13.20;77.50;;;;;;10333847;28;21484;-61
2024/03/30 20:13:14;;;;;;;10.27;7.13;;;13.10;77.70;;;;;;10340687;28;20208;-61
2024/03/30 20:18:17;;;;;;;9.25;7.85;;;13.00;77.70;;;;;;10340717;28;20590;-61
2024/03/30 20:23:23;;;;;;;16.10;9.75;;;13.00;77.70;;;;;;10345820;28;20245;-59
2024/03/30 20:28:27;;;;;;;9.75;8.05;;;12.90;78.00;;;;;;10344554;28;21800;-61
2024/03/30 20:33:31;;;;;;;9.68;8.65;;;12.90;77.80;;;;;;10343155;28;20208;-61
2024/03/30 20:38:35;;;;;;;11.13;9.45;;;12.90;77.90;;;;;;10341868;28;20285;-61
2024/03/30 20:43:38;;;;;;;10.40;9.30;;;12.90;78.10;;;;;;10342349;28;21560;-61
2024/03/30 20:48:43;;;;;;;12.35;9.52;;;12.90;78.00;;;;;;10358003;22;20223;-65
2024/03/30 20:53:46;;;;;;;11.35;10.13;;;12.90;78.10;;;;;;10350901;28;20296;-64
2024/03/30 20:58:49;;;;;;;12.10;10.70;;;12.90;78.50;;;;;;10313765;28;20275;-65
2024/03/30 21:03:52;;;;;;;12.20;10.45;;;12.80;78.40;;;;;;10351157;28;20295;-62
2024/03/30 21:08:56;;;;;;;13.45;10.80;;;12.80;78.70;;;;;;10332659;28;20290;-65
2024/03/30 21:14:00;;;;;;;13.30;10.25;;;12.80;78.80;;;;;;10321251;28;20982;-65
2024/03/30 21:19:03;;;;;;;13.35;10.18;;;12.70;78.90;;;;;;10339265;28;20678;-63
2024/03/30 21:24:07;;;;;;;12.40;10.68;;;12.60;78.90;;;;;;10334651;28;20213;-67
2024/03/30 21:29:11;;;;;;;16.52;12.63;;;12.60;79.10;;;;;;10336381;28;20247;-65
2024/03/30 21:34:14;;;;;;;16.92;12.48;;;12.50;79.00;;;;;;10330579;28;20213;-64
2024/03/30 21:39:18;;;;;;;13.93;12.23;;;12.50;78.90;;;;;;10308729;28;20232;-68
2024/03/30 21:44:21;;;;;;;16.33;11.65;;;12.50;79.10;;;;;;10298984;28;20212;-65
2024/03/30 21:49:23;;;;;;;17.25;15.10;;;12.40;79.30;;;;;;10298405;28;20259;-67
2024/03/30 21:54:27;;;;;;;15.13;13.52;;;12.40;79.40;;;;;;10289292;28;20213;-65
2024/03/30 21:59:30;;;;;;;18.27;14.60;;;12.40;79.40;;;;;;10302930;28;20232;-64
2024/03/30 22:04:32;;;;;;;17.55;15.68;;;12.40;79.80;;;;;;10341058;28;20259;-63
2024/03/30 22:09:36;;;;;;;17.65;15.80;;;12.40;80.00;;;;;;10352673;28;20355;-63
2024/03/30 22:14:39;;;;;;;17.50;15.63;;;12.40;80.00;;;;;;10345711;28;20991;-64
2024/03/30 22:19:41;;;;;;;19.08;17.05;;;12.40;80.10;;;;;;10327796;28;20228;-65
2024/03/30 22:24:45;;;;;;;18.27;16.38;;;12.40;80.10;;;;;;10295742;28;20305;-66
2024/03/30 22:29:48;;;;;;;17.85;15.88;;;12.40;80.10;;;;;;10293486;28;20221;-66
2024/03/30 22:34:51;;;;;;;18.48;16.67;;;12.40;80.00;;;;;;10294415;28;20213;-67
2024/03/30 22:39:54;;;;;;;18.33;16.33;;;12.40;80.60;;;;;;10297159;28;20232;-66
2024/03/30 22:44:57;;;;;;;20.83;17.40;;;12.40;80.70;;;;;;10300723;28;20215;-66
2024/03/30 22:50:00;;;;;;;19.33;17.20;;;12.40;80.40;;;;;;10333650;28;20326;-62
2024/03/30 22:55:04;;;;;;;18.77;16.88;;;12.40;80.40;;;;;;10341863;28;20318;-63
2024/03/30 23:00:13;;;;;;;18.20;16.00;;;12.40;80.30;;;;;;10334164;28;20294;-66
2024/03/30 23:05:15;;;;;;;18.92;16.80;;;12.40;81.00;;;;;;10351144;28;20296;-64
2024/03/30 23:10:19;;;;;;;19.10;16.95;;;12.40;81.10;;;;;;10344647;28;20295;-67
2024/03/30 23:15:22;;;;;;;18.65;16.65;;;12.30;80.80;;;;;;10304972;28;20242;-64
2024/03/30 23:20:25;;;;;;;19.17;17.17;;;12.20;81.70;;;;;;10317814;28;20298;-68
2024/03/30 23:25:29;;;;;;;19.23;17.13;;;12.20;81.30;;;;;;10300989;28;20773;-67
2024/03/30 23:30:31;;;;;;;20.75;18.60;;;12.10;81.30;;;;;;10303674;28;20254;-66
2024/03/30 23:35:35;;;;;;;21.80;19.50;;;12.10;81.80;;;;;;10313735;28;20212;-65
2024/03/30 23:40:40;;;;;;;23.25;20.80;;;12.00;81.70;;;;;;10324711;28;20235;-66
2024/03/30 23:45:42;;;;;;;24.02;21.00;;;11.90;81.90;;;;;;10329482;28;20863;-65
2024/03/30 23:50:45;;;;;;;23.60;21.08;;;11.90;81.80;;;;;;10332879;28;20362;-64
2024/03/30 23:55:49;;;;;;;22.38;19.98;;;11.80;81.40;;;;;;10305751;28;20216;-66
